Station: Collie East

  Atmospheric Gas Attenuation - ITU Rec 676-11   --------------- db/100km ---------------
Date Time Temp RH % AH g/m3 Dew Point Wind Direction Speed kph Gust kph Barometer mB Rainfall Since 9am 24GHz 47GHz 76GHz 122GHz 134GHz 241GHz
04 04:00 8.1 92 7.66 6.9 4 13 1013.1 0.6 17.8 26.0 38.8 101.6 92.8 318.0
04 03:40 8.2 92 7.71 7 2 6 1013.1 0.6 17.9 26.1 38.9 102.1 93.3 320.0
04 03:30 8.2 92 7.71 7 6 11 1013.1 0.4 17.9 26.1 38.9 102.1 93.3 320.0
04 03:20 8.2 92 7.71 7 6 9 1013.1 0.4 17.9 26.1 38.9 102.1 93.3 320.0
04 03:10 8.1 92 7.66 6.9 6 13 1013.1 0.4 17.8 26.0 38.8 101.6 92.8 318.0
04 03:00 8.2 92 7.71 7 6 9 1013.1 0.4 17.9 26.1 38.9 102.1 93.3 320.0
04 02:50 8.3 92 7.76 7.1 6 6 1013.1 0.4 18.0 26.1 39.1 102.5 93.9 322.0
04 02:40 8.4 92 7.81 7.2 0 0 1013.1 0.4 18.1 26.2 39.2 102.9 94.5 324.0
04 02:30 8.4 92 7.81 7.2 4 9 1013.1 0.4 18.1 26.2 39.2 102.9 94.5 324.0
04 02:20 8.5 92 7.86 7.3 6 9 1013.1 0.4 18.3 26.2 39.4 103.4 95.0 326.0
04 02:10 8.5 92 7.86 7.3 6 9 1013.1 0.4 18.3 26.2 39.4 103.4 95.0 326.0
04 02:00 8.4 92 7.81 7.2 2 6 1013.1 0.4 18.1 26.2 39.2 102.9 94.5 324.0
04 01:50 8.5 92 7.86 7.3 6 7 1013.1 0.4 18.3 26.2 39.4 103.4 95.0 326.0
04 01:30 8.3 92 7.76 7.1 2 9 1013.1 0.4 18.0 26.1 39.1 102.5 93.9 322.0
04 01:20 8.2 92 7.71 7 0 4 1013.1 0.4 17.9 26.1 38.9 102.1 93.3 320.0
04 01:10 8 92 7.61 6.8 2 6 1013.1 0.4 17.7 25.9 38.6 101.2 92.2 316.0
04 01:00 7.9 92 7.56 6.7 0 7 1013.1 0.4 17.6 25.9 38.4 100.8 91.6 314.0
04 00:50 7.7 92 7.46 6.5 0 0 1013.1 0.4 17.4 25.8 38.1 99.9 90.5 309.9
04 00:40 7.7 92 7.46 6.5 0 0 1013.1 0.4 17.4 25.8 38.1 99.9 90.5 309.9
04 00:30 7.6 92 7.42 6.4 2 9 1013.1 0.4 17.3 25.7 38.0 99.6 90.0 308.4
04 00:20 7.6 93 7.5 6.5 4 9 1013.1 0.4 17.5 25.9 38.3 100.5 91.2 312.3
04 00:10 7.2 92 7.23 6 4 7 1013.1 0.4 16.9 25.5 37.4 98.0 87.9 300.8
04 00:00 7 92 7.13 5.8 2 7 1013.1 0.4 16.7 25.4 37.1 97.1 86.8 296.8
03 23:50 6.9 92 7.09 5.7 0 4 1013.1 0.4 16.7 25.4 37.0 96.8 86.3 295.3
03 23:40 6.6 92 6.95 5.4 4 6 1013.1 0.4 16.4 25.2 36.5 95.6 84.7 289.7
03 23:30 6.1 92 6.73 4.9 2 9 1013.1 0.4 15.9 25.0 35.8 93.8 82.3 280.9
03 23:20 5.4 91 6.35 4.1 0 0 1013.1 0.4 15.1 24.6 34.6 90.4 77.8 265.3
03 23:10 5.5 91 6.4 4.2 0 0 1013.1 0.4 15.2 24.6 34.7 90.9 78.4 267.3
03 23:00 5.3 91 6.31 4 0 6 1013.1 0.4 15.0 24.5 34.5 90.1 77.4 263.7
03 22:50 4.9 91 6.15 3.6 0 0 1013.1 0.4 14.7 24.4 34.0 88.8 75.6 257.4
03 22:40 4.8 91 6.11 3.5 0 0 1013.1 0.4 14.6 24.4 33.9 88.5 75.2 255.8
03 22:30 4.8 91 6.11 3.5 0 0 1013.1 0.4 14.6 24.4 33.9 88.5 75.2 255.8
03 22:20 5 91 6.19 3.7 0 0 1013.1 0.4 14.8 24.4 34.1 89.1 76.0 259.0
03 22:10 5 91 6.19 3.7 0 0 1013.1 0.4 14.8 24.4 34.1 89.1 76.0 259.0
03 22:00 5 91 6.19 3.7 0 0 1013.1 0.4 14.8 24.4 34.1 89.1 76.0 259.0
03 21:50 4.9 90 6.08 3.4 0 0 1013.1 0.4 14.6 24.3 33.7 88.0 74.7 254.1
03 21:40 4.9 90 6.08 3.4 0 0 1013.1 0.4 14.6 24.3 33.7 88.0 74.7 254.1
03 21:30 4.9 90 6.08 3.4 0 4 1013.1 0.4 14.6 24.3 33.7 88.0 74.7 254.1
03 21:20 4.7 90 6 3.2 0 0 1013.1 0.4 14.4 24.2 33.4 87.4 73.8 250.9
03 21:10 4.6 90 5.96 3.1 4 6 1013.1 0.4 14.3 24.2 33.3 87.1 73.3 249.4
03 21:00 4.5 89 5.85 2.8 0 0 1013.1 0.4 14.1 24.0 32.9 86.0 71.9 244.5
03 20:50 4.6 89 5.89 2.9 0 0 1013.1 0.4 14.2 24.0 33.0 86.3 72.4 246.1
03 20:40 4.8 89 5.97 3.1 0 0 1013.1 0.4 14.3 24.1 33.3 87.0 73.3 249.2
03 20:30 4.8 88 5.91 3 0 0 1013.1 0.4 14.2 24.0 33.0 86.3 72.5 246.4
03 20:20 5 88 5.98 3.2 0 0 1013.1 0.4 14.3 24.1 33.2 86.8 73.2 249.0
03 20:10 5.2 88 6.06 3.4 0 0 1013.1 0.4 14.5 24.2 33.5 87.5 74.1 252.2
03 20:00 5.2 87 5.99 3.2 0 0 1013.1 0.4 14.4 24.0 33.2 86.7 73.2 248.9
03 19:50 5.5 87 6.11 3.5 0 0 1013.1 0.4 14.6 24.2 33.6 87.7 74.5 253.6
03 19:40 5.7 87 6.2 3.7 0 0 1013.1 0.4 14.8 24.3 33.8 88.5 75.5 257.1
03 19:30 6.1 86 6.29 3.9 0 0 1013.1 0.4 15.0 24.3 34.0 89.0 76.3 260.1
03 19:20 6.4 85 6.34 4.1 0 0 1013.1 0.4 15.1 24.3 34.1 89.2 76.7 261.4
03 19:10 6.6 84 6.34 4.1 0 0 1013.1 0.4 15.1 24.2 34.0 89.0 76.5 260.8
03 19:00 7 83 6.43 4.3 0 0 1013.1 0.4 15.2 24.3 34.2 89.5 77.3 263.6
03 18:50 7.3 81 6.4 4.3 0 0 1013.1 0.4 15.2 24.1 34.0 88.8 76.6 261.2
03 18:40 7.8 79 6.45 4.4 0 0 1013.1 0.4 15.2 24.1 34.0 88.8 76.8 261.9
03 18:30 8.2 77 6.45 4.4 4 7 1013.1 0.4 15.2 24.0 33.8 88.3 76.4 260.6
03 18:20 8.8 74 6.44 4.4 2 4 1013.1 0.4 15.2 23.8 33.5 87.6 75.7 258.1
03 18:10 9 73 6.44 4.4 6 7 1013.1 0.4 15.2 23.8 33.4 87.3 75.5 257.5
03 18:00 9.4 71 6.42 4.4 6 9 1013.1 0.4 15.1 23.6 33.2 86.7 74.8 255.3
03 17:50 9.8 71 6.59 4.8 6 7 1013.1 0.4 15.5 23.8 33.7 88.0 76.6 261.7
03 17:40 10.4 69 6.65 5 2 4 1013.1 0.4 15.6 23.7 33.6 88.0 76.8 262.4
03 17:30 10.8 67 6.62 4.9 6 11 1013.1 0.4 15.5 23.6 33.4 87.2 76.0 259.7
03 17:20 11 67 6.71 5.1 6 6 1013.1 0.4 15.7 23.7 33.6 87.9 77.0 263.1
03 17:10 11.3 65 6.63 5 7 9 1013.1 0.4 15.5 23.5 33.2 86.8 75.7 258.5
03 17:00 11.4 65 6.67 5.1 4 9 1013.1 0.4 15.6 23.5 33.3 87.1 76.1 260.0
03 16:50 11.6 61 6.34 4.3 7 9 1013.1 0.4 14.9 22.9 32.0 83.5 71.7 244.8
03 16:40 12.2 58 6.26 4.2 7 13 1013.1 0.4 14.7 22.7 31.4 82.1 70.2 239.5
03 16:30 12.4 60 6.56 4.9 7 11 1013.1 0.4 15.3 23.1 32.5 84.9 73.7 251.9
03 16:20 12.3 59 6.41 4.5 11 13 1013.1 0.4 15.0 22.9 32.0 83.5 72.0 245.7
03 16:10 12.2 59 6.37 4.4 7 9 1013.1 0.4 14.9 22.8 31.8 83.2 71.6 244.3
03 16:00 11.7 62 6.49 4.7 9 15 1013.1 0.4 15.2 23.1 32.5 84.9 73.5 251.1
03 15:50 12.1 63 6.76 5.3 9 13 1013.1 0.4 15.7 23.4 33.4 87.2 76.5 261.7
03 15:40 11.5 67 6.92 5.6 7 9 1013.1 0.4 16.1 23.9 34.2 89.5 79.2 270.8
03 15:30 10.8 69 6.82 5.3 7 11 1013.1 0.4 15.9 23.9 34.1 89.3 78.6 268.7
03 15:20 10.9 68 6.77 5.2 9 11 1013.1 0.2 15.8 23.8 33.9 88.7 77.8 266.1
03 15:10 10.9 66 6.57 4.8 9 11 1013.1 0.2 15.4 23.5 33.1 86.6 75.3 257.2
03 15:00 11.1 67 6.75 5.2 11 20 1013.1 0.2 15.8 23.7 33.7 88.2 77.4 264.6
03 14:50 11.4 63 6.47 4.6 7 9 1013.1 0 15.1 23.2 32.5 85.0 73.6 251.1
03 14:40 12 62 6.61 5 6 7 1013.1 0 15.4 23.2 32.8 85.8 74.8 255.4
03 14:30 12 60 6.4 4.5 7 15 1013.1 0 15.0 22.9 32.0 83.7 72.1 246.2
03 14:20 12.1 57 6.11 3.9 9 11 1013.1 0 14.4 22.5 30.9 80.7 68.5 233.3
03 14:10 12.5 59 6.49 4.7 7 9 1013.1 0 15.1 22.9 32.2 84.1 72.8 248.6
03 14:00 12.6 56 6.2 4.1 9 17 1013.1 0 14.5 22.5 31.1 81.1 69.1 235.7
03 13:50 13 54 6.12 3.9 9 11 1013.1 0 14.3 22.3 30.6 79.9 67.8 231.1
03 13:40 13.1 54 6.16 4 11 15 1013.1 0 14.4 22.3 30.7 80.2 68.2 232.6
03 13:30 13.2 53 6.09 3.8 9 17 1013.1 0 14.3 22.2 30.4 79.4 67.3 229.3
03 13:20 12.7 58 6.46 4.7 7 7 1013.1 0 15.1 22.8 32.0 83.6 72.2 246.6
03 13:10 13.9 59 7.07 6 11 15 1013.1 0 16.3 23.5 33.8 88.4 78.6 269.3
03 13:00 13.5 57 6.67 5.2 9 17 1013.1 0 15.5 23.0 32.4 84.8 74.1 253.2
03 12:50 13.1 60 6.85 5.5 7 9 1013.1 0 15.9 23.3 33.3 87.1 76.7 262.4
03 12:40 12.8 59 6.61 5 9 13 1013.1 0 15.4 23.0 32.5 85.0 74.0 252.9
03 12:30 12.4 61 6.67 5.1 11 17 1013.1 0 15.5 23.2 32.9 86.0 75.1 256.7
03 12:20 12.4 62 6.77 5.3 9 13 1013.1 0 15.7 23.4 33.3 87.0 76.4 261.1
03 12:10 12.7 64 7.13 6.1 11 11 1013.1 0 16.5 23.9 34.5 90.4 80.6 276.1
03 12:00 12.3 66 7.17 6.1 9 15 1013.1 0 16.6 24.0 34.9 91.2 81.5 279.2
03 11:50 11.9 66 6.99 5.8 6 6 1013.1 0 16.2 23.9 34.3 89.8 79.7 272.6
03 11:40 11.3 68 6.94 5.6 9 11 1013.1 0 16.2 23.9 34.4 90.0 79.6 272.4
03 11:30 11.4 70 7.19 6.1 9 17 1013.1 0 16.7 24.3 35.3 92.5 82.7 283.3
03 11:20 11.6 70 7.28 6.3 11 15 1013.1 0 16.9 24.4 35.6 93.2 83.7 286.7
03 11:10 11.5 70 7.23 6.2 9 13 1013.1 0 16.8 24.3 35.4 92.8 83.2 284.8

Last Refresh: 04-Aug-2020 05:41:56

Most of the information presented on this site is sourced from the Bureau of Meteorology.  Copyright in all material sourced from the Bureau of Meteorology resides with the Commonwealth of Australia.